Time;durP1;ratioP1;P1;durP2;ratioP2;P2;SDS_P1;SDS_P2;PMS_P1;PMS_P2;Temp;Humidity;BMP_temperature;BMP_pressure;BME280_temperature;BME280_humidity;BME280_pressure;Samples;Min_cycle;Max_cycle;Signal;HPM_P1;HPM_P2
2021/11/22 00:01:30;;;;;;;;;0.00;0.00;;;;;21.83;38.82;101772.53;4972772;28;45838;-65
2021/11/22 00:03:56;;;;;;;;;2.00;0.00;;;;;21.77;38.25;101765.22;4974285;28;47268;-65
2021/11/22 00:06:21;;;;;;;;;0.67;0.00;;;;;21.83;38.59;101782.31;4972432;28;45328;-65
2021/11/22 00:08:46;;;;;;;;;0.00;0.00;;;;;21.81;38.52;101771.03;4968405;28;45351;-65
2021/11/22 00:11:12;;;;;;;;;0.00;0.00;;;;;21.82;38.63;101778.00;4967811;28;45270;-65
2021/11/22 00:13:37;;;;;;;;;0.00;0.00;;;;;21.78;38.45;101768.72;4974299;28;45339;-65
2021/11/22 00:16:03;;;;;;;;;1.00;1.00;;;;;21.78;38.44;101774.81;4972787;28;45491;-65
2021/11/22 00:18:28;;;;;;;;;0.00;0.00;;;;;21.77;38.61;101770.53;4975591;28;45461;-65
2021/11/22 00:20:54;;;;;;;;;1.00;0.00;;;;;21.73;38.68;101767.34;4972840;28;45663;-65
2021/11/22 00:23:19;;;;;;;;;0.00;0.00;;;;;21.75;38.26;101767.22;4974822;28;48957;-65
2021/11/22 00:25:45;;;;;;;;;0.00;0.00;;;;;21.78;38.71;101763.41;4973132;28;45732;-65
2021/11/22 00:28:10;;;;;;;;;0.00;0.00;;;;;21.77;38.77;101759.09;4976526;28;45466;-65
2021/11/22 00:30:36;;;;;;;;;0.00;0.00;;;;;21.73;38.54;101766.50;4974501;28;45635;-65
2021/11/22 00:33:02;;;;;;;;;0.67;0.67;;;;;21.77;38.68;101773.19;4977252;28;46453;-65
2021/11/22 00:35:34;;;;;;;;;0.00;0.00;;;;;21.76;38.56;101765.38;4968680;28;45485;-65
2021/11/22 00:38:03;;;;;;;;;0.00;0.00;;;;;21.74;38.40;101773.47;4969345;28;45549;-65
2021/11/22 00:40:29;;;;;;;;;0.00;0.00;;;;;21.74;38.42;101773.47;4972447;28;45341;-65
2021/11/22 00:42:54;;;;;;;;;1.00;1.00;;;;;21.77;38.17;101777.63;4972738;28;45527;-65
2021/11/22 00:45:20;;;;;;;;;0.00;0.00;;;;;21.73;38.61;101772.66;4971675;28;45768;-65
2021/11/22 00:47:45;;;;;;;;;1.33;0.00;;;;;21.75;38.20;101783.09;4971061;28;45319;-65
2021/11/22 00:50:11;;;;;;;;;1.00;0.00;;;;;21.74;38.54;101784.06;4972333;28;45401;-65
2021/11/22 00:52:37;;;;;;;;;0.00;0.00;;;;;21.78;38.22;101788.06;4972574;28;45624;-66
2021/11/22 00:55:04;;;;;;;;;0.00;0.00;;;;;21.79;38.18;101794.19;4973179;28;48907;-65
2021/11/22 00:57:29;;;;;;;;;2.00;1.00;;;;;21.78;38.21;101788.06;4970242;28;45355;-65
2021/11/22 00:59:55;;;;;;;;;0.33;0.00;;;;;21.73;37.86;101785.88;4970751;28;45645;-65
2021/11/22 01:02:22;;;;;;;;;0.00;0.00;;;;;21.79;38.25;101805.63;4972749;28;45580;-65
2021/11/22 01:04:47;;;;;;;;;2.00;0.00;;;;;21.80;38.34;101803.81;4970984;28;45351;-65
2021/11/22 01:07:13;;;;;;;;;0.00;0.00;;;;;21.76;38.12;101813.03;4975320;28;45394;-65
2021/11/22 01:09:38;;;;;;;;;1.00;1.00;;;;;21.77;38.23;101812.91;4970219;28;45859;-65
2021/11/22 01:12:04;;;;;;;;;1.00;0.00;;;;;21.79;38.08;101815.41;4973822;28;46276;-65
2021/11/22 01:14:29;;;;;;;;;1.00;0.00;;;;;21.78;38.29;101827.81;4970601;28;45485;-66
2021/11/22 01:16:55;;;;;;;;;1.00;0.00;;;;;21.77;38.29;101827.97;4969508;28;45473;-65
2021/11/22 01:19:21;;;;;;;;;0.00;0.00;;;;;21.73;38.01;101822.97;4972774;28;45316;-65
2021/11/22 01:21:46;;;;;;;;;0.00;0.00;;;;;21.77;38.44;101835.91;4973966;28;45513;-65
2021/11/22 01:24:12;;;;;;;;;0.25;0.00;;;;;21.72;38.04;101826.63;4972130;28;45335;-64
2021/11/22 01:26:38;;;;;;;;;0.00;0.00;;;;;21.73;38.37;101824.78;4974650;28;45520;-65
2021/11/22 01:29:04;;;;;;;;;0.00;0.00;;;;;21.74;37.94;101827.28;4972236;28;45500;-65
2021/11/22 01:31:29;;;;;;;;;0.00;0.00;;;;;21.74;37.83;101831.75;4968072;28;45504;-65
2021/11/22 01:33:55;;;;;;;;;0.00;0.00;;;;;21.73;37.87;101836.22;4974903;28;45462;-64
2021/11/22 01:36:21;;;;;;;;;0.00;0.00;;;;;21.74;38.27;101829.09;4973882;28;45557;-66
2021/11/22 01:38:46;;;;;;;;;1.67;1.00;;;;;21.72;38.32;101837.22;4974226;28;45534;-65
2021/11/22 01:41:12;;;;;;;;;0.00;0.00;;;;;21.69;38.00;101821.63;4972649;28;45513;-66
2021/11/22 01:43:37;;;;;;;;;0.00;0.00;;;;;21.72;38.19;101834.56;4970021;28;45517;-65
2021/11/22 01:46:03;;;;;;;;;0.67;0.00;;;;;21.65;38.23;101820.25;4974039;28;45345;-66
2021/11/22 01:48:28;;;;;;;;;0.50;0.00;;;;;21.71;38.18;101835.53;4974490;28;45514;-65
2021/11/22 01:50:54;;;;;;;;;0.00;0.00;;;;;21.73;38.26;101848.63;4973663;28;47078;-65
2021/11/22 01:53:23;;;;;;;;;0.50;0.00;;;;;21.73;38.31;101843.31;4972314;28;45358;-65
2021/11/22 01:55:49;;;;;;;;;0.00;0.00;;;;;21.68;38.03;101832.34;4973182;28;45583;-65
2021/11/22 01:58:14;;;;;;;;;0.00;0.00;;;;;21.70;37.86;101835.72;4975061;28;45325;-65
2021/11/22 02:00:50;;;;;;;;;0.00;0.00;;;;;21.72;38.16;101846.97;4969047;28;46634;-66
2021/11/22 02:03:17;;;;;;;;;1.00;0.00;;;;;21.72;38.24;101841.69;4967962;28;45359;-66
2021/11/22 02:05:43;;;;;;;;;0.00;0.00;;;;;21.72;37.94;101847.81;4968386;28;45513;-66
2021/11/22 02:08:09;;;;;;;;;0.00;0.00;;;;;21.69;38.17;101840.16;4967901;28;45478;-65
2021/11/22 02:10:35;;;;;;;;;1.00;0.00;;;;;21.70;37.93;101848.94;4966958;28;46473;-66
2021/11/22 02:13:02;;;;;;;;;0.33;0.33;;;;;21.72;38.02;101852.28;4971199;28;45481;-66
2021/11/22 02:15:28;;;;;;;;;0.00;0.00;;;;;21.69;37.68;101842.81;4969492;28;45565;-65
2021/11/22 02:17:53;;;;;;;;;0.00;0.00;;;;;21.58;38.03;101829.81;4973421;28;45421;-66
2021/11/22 02:20:30;;;;;;;;;0.00;0.00;;;;;21.72;38.37;101855.75;4965811;28;45642;-65
2021/11/22 02:23:08;;;;;;;;;0.00;0.00;;;;;21.72;37.99;101852.28;4972460;28;45399;-65
2021/11/22 02:25:35;;;;;;;;;0.00;0.00;;;;;21.72;37.69;101849.63;4967694;28;45593;-66
2021/11/22 02:28:02;;;;;;;;;0.00;0.00;;;;;21.72;38.09;101855.75;4972171;28;45410;-66
2021/11/22 02:30:34;;;;;;;;;0.00;0.00;;;;;21.71;37.61;101862.03;4972413;28;46578;-66
2021/11/22 02:33:06;;;;;;;;;0.00;0.00;;;;;21.72;38.17;101863.72;4969428;28;45469;-66
2021/11/22 02:35:34;;;;;;;;;0.00;0.00;;;;;21.73;38.18;101865.34;4973638;28;45512;-65
2021/11/22 02:37:59;;;;;;;;;0.00;0.00;;;;;21.71;37.88;101863.84;4969387;28;45430;-66
2021/11/22 02:40:25;;;;;;;;;0.00;0.00;;;;;21.74;37.96;101874.13;4971013;28;45470;-66
2021/11/22 02:42:50;;;;;;;;;0.00;0.00;;;;;21.71;37.65;101869.97;4969741;28;45364;-65
2021/11/22 02:45:19;;;;;;;;;0.00;0.00;;;;;21.73;38.01;101870.66;4973265;28;45393;-66
2021/11/22 02:47:47;;;;;;;;;0.00;0.00;;;;;21.69;38.01;101871.94;4967691;28;45598;-65
2021/11/22 02:50:13;;;;;;;;;0.00;0.00;;;;;21.73;38.11;101867.16;4967166;28;46392;-65
2021/11/22 02:52:40;;;;;;;;;0.00;0.00;;;;;21.68;37.82;101875.56;4970423;28;46679;-65
2021/11/22 02:55:06;;;;;;;;;0.00;0.00;;;;;21.72;37.96;101881.41;4972227;28;45612;-66
2021/11/22 02:57:32;;;;;;;;;0.00;0.00;;;;;21.69;38.27;101879.91;4971707;28;45295;-65
2021/11/22 02:59:57;;;;;;;;;0.00;0.00;;;;;21.69;37.74;101879.91;4968247;28;45369;-66
2021/11/22 03:02:23;;;;;;;;;0.00;0.00;;;;;21.67;38.12;101875.75;4969298;28;45456;-65
2021/11/22 03:04:48;;;;;;;;;0.00;0.00;;;;;21.71;38.20;101892.97;4968773;28;45620;-65
2021/11/22 03:07:13;;;;;;;;;0.00;0.00;;;;;21.70;38.14;101886.03;4974135;28;45818;-65
2021/11/22 03:09:39;;;;;;;;;1.00;1.00;;;;;21.69;37.73;101881.72;4972209;28;45567;-66
2021/11/22 03:12:08;;;;;;;;;1.00;0.00;;;;;21.69;37.60;101884.34;4969436;28;45536;-66
2021/11/22 03:14:34;;;;;;;;;0.67;0.00;;;;;21.69;37.98;101889.66;4972287;28;45478;-65
2021/11/22 03:17:01;;;;;;;;;0.00;0.00;;;;;21.70;38.23;101892.13;4971893;28;45429;-66
2021/11/22 03:19:26;;;;;;;;;0.00;0.00;;;;;21.51;38.00;101864.03;4970998;28;45463;-65
2021/11/22 03:21:52;;;;;;;;;0.00;0.00;;;;;21.68;38.03;101885.31;4970486;28;45234;-66
2021/11/22 03:24:19;;;;;;;;;0.00;0.00;;;;;21.68;37.78;101885.31;4972560;28;45363;-66
2021/11/22 03:26:45;;;;;;;;;0.00;0.00;;;;;21.67;38.19;101888.97;4969169;28;45679;-66
2021/11/22 03:29:11;;;;;;;;;0.00;0.00;;;;;21.68;37.97;101894.13;4969963;28;45533;-66
2021/11/22 03:31:38;;;;;;;;;0.00;0.00;;;;;21.67;38.04;101891.63;4973007;28;45539;-66
2021/11/22 03:34:06;;;;;;;;;0.00;0.00;;;;;21.66;37.88;101896.09;4972661;28;45329;-66
2021/11/22 03:36:33;;;;;;;;;0.00;0.00;;;;;21.66;37.95;101898.75;4973118;28;45512;-66
2021/11/22 03:39:00;;;;;;;;;0.00;0.00;;;;;21.68;37.57;101909.16;4966100;28;45847;-65
2021/11/22 03:41:27;;;;;;;;;0.00;0.00;;;;;21.66;38.08;101908.50;4973707;28;45528;-66
2021/11/22 03:44:10;;;;;;;;;1.67;0.00;;;;;21.69;37.55;101913.50;4962874;28;45371;-65
2021/11/22 03:46:37;;;;;;;;;0.00;0.00;;;;;21.68;38.09;101917.94;4971693;28;45575;-66
2021/11/22 03:49:02;;;;;;;;;0.00;0.00;;;;;21.69;37.52;101926.75;4972398;28;45456;-65
2021/11/22 03:51:27;;;;;;;;;0.75;0.00;;;;;21.65;37.83;101915.59;4968170;28;45485;-65
2021/11/22 03:53:53;;;;;;;;;0.00;0.00;;;;;21.70;37.66;101920.47;4969604;28;45798;-66
2021/11/22 03:56:19;;;;;;;;;0.00;0.00;;;;;21.70;37.55;101918.63;4970611;28;45494;-66
2021/11/22 03:58:44;;;;;;;;;0.00;0.00;;;;;21.70;37.71;101923.91;4970095;28;45537;-65
2021/11/22 04:01:09;;;;;;;;;0.00;0.00;;;;;21.70;37.90;101926.56;4971024;28;45434;-66
2021/11/22 04:03:35;;;;;;;;;0.00;0.00;;;;;21.66;37.89;101921.72;4971087;28;45494;-66
2021/11/22 04:06:00;;;;;;;;;0.00;0.00;;;;;21.70;37.56;101931.88;4971341;28;45490;-66
2021/11/22 04:08:25;;;;;;;;;0.00;0.00;;;;;21.69;37.90;101930.22;4969180;28;46344;-65
2021/11/22 04:10:51;;;;;;;;;0.00;0.00;;;;;21.69;38.06;101932.88;4966557;28;45500;-65
2021/11/22 04:13:16;;;;;;;;;0.00;0.00;;;;;21.68;37.53;101936.50;4972272;28;45576;-66
2021/11/22 04:15:42;;;;;;;;;0.00;0.00;;;;;21.70;37.33;101941.66;4969431;28;45424;-66
2021/11/22 04:18:09;;;;;;;;;0.00;0.00;;;;;21.65;38.08;101941.28;4967650;28;45304;-65
2021/11/22 04:20:34;;;;;;;;;0.00;0.00;;;;;21.67;37.36;101948.09;4968395;28;45445;-66
2021/11/22 04:23:02;;;;;;;;;0.00;0.00;;;;;21.68;37.63;101946.25;4970040;28;45455;-66
2021/11/22 04:25:28;;;;;;;;;0.00;0.00;;;;;21.66;37.43;101941.13;4970211;28;45424;-65
2021/11/22 04:27:53;;;;;;;;;0.00;0.00;;;;;21.66;37.72;101943.75;4970351;28;46426;-66
2021/11/22 04:30:18;;;;;;;;;1.00;0.00;;;;;21.67;37.92;101953.38;4971043;27;45411;-66
2021/11/22 04:32:44;;;;;;;;;0.00;0.00;;;;;21.64;37.50;101961.63;4967056;28;45419;-66
2021/11/22 04:35:12;;;;;;;;;1.00;0.00;;;;;21.69;37.85;101969.13;4969471;28;45521;-66
2021/11/22 04:37:38;;;;;;;;;1.00;0.00;;;;;21.68;37.54;101978.03;4971254;28;45570;-65
2021/11/22 04:40:06;;;;;;;;;0.00;0.00;;;;;21.61;37.83;101969.88;4971992;28;45422;-66
2021/11/22 04:42:32;;;;;;;;;0.75;0.00;;;;;21.67;37.73;101981.69;4972031;28;45456;-66
2021/11/22 04:44:57;;;;;;;;;0.00;0.00;;;;;21.66;37.71;101978.19;4973662;28;45442;-66
2021/11/22 04:47:23;;;;;;;;;0.00;0.00;;;;;21.63;37.54;101978.50;4971243;28;46364;-65
2021/11/22 04:49:52;;;;;;;;;0.00;0.00;;;;;21.66;37.92;101974.72;4978151;28;45451;-66
2021/11/22 04:52:18;;;;;;;;;0.00;0.00;;;;;21.66;37.85;101978.19;4973636;28;45500;-65
2021/11/22 04:54:44;;;;;;;;;2.00;0.00;;;;;21.63;37.66;101978.50;4973365;28;45429;-66
2021/11/22 04:57:10;;;;;;;;;0.00;0.00;;;;;21.67;37.30;101989.63;4970129;28;45747;-64
2021/11/22 04:59:36;;;;;;;;;0.00;0.00;;;;;21.67;37.76;101986.97;4971441;28;45528;-65
2021/11/22 05:02:02;;;;;;;;;1.00;0.00;;;;;21.64;37.43;101988.13;4971521;28;45383;-64
2021/11/22 05:04:28;;;;;;;;;0.00;0.00;;;;;21.50;37.99;101963.78;4971234;28;45454;-64
2021/11/22 05:06:53;;;;;;;;;0.00;0.00;;;;;21.64;37.74;101993.41;4971425;28;46550;-64
2021/11/22 05:09:22;;;;;;;;;0.00;0.00;;;;;21.64;37.78;101996.06;4969664;28;45387;-65
2021/11/22 05:11:48;;;;;;;;;0.00;0.00;;;;;21.65;37.39;102003.00;4970989;28;49942;-64
2021/11/22 05:14:15;;;;;;;;;0.00;0.00;;;;;21.64;37.48;101998.72;4971600;28;45783;-65
2021/11/22 05:16:40;;;;;;;;;1.00;0.00;;;;;21.64;37.77;102014.59;4972128;28;45719;-64
2021/11/22 05:19:06;;;;;;;;;0.00;0.00;;;;;21.66;37.38;102001.19;4970215;28;45530;-64
2021/11/22 05:21:32;;;;;;;;;0.00;0.00;;;;;21.62;37.22;102014.72;4973996;28;45866;-64
2021/11/22 05:24:01;;;;;;;;;0.00;0.00;;;;;21.65;37.45;102015.44;4972066;28;45462;-65
2021/11/22 05:26:29;;;;;;;;;0.00;0.00;;;;;21.65;37.67;102020.72;4972087;28;45398;-64
2021/11/22 05:28:54;;;;;;;;;3.00;0.00;;;;;21.61;37.59;102021.03;4973000;28;45466;-64
2021/11/22 05:31:20;;;;;;;;;0.00;0.00;;;;;21.66;37.23;102035.63;4970595;28;45599;-65
2021/11/22 05:33:45;;;;;;;;;0.50;0.00;;;;;21.67;37.42;102032.84;4972680;28;45410;-65
2021/11/22 05:36:11;;;;;;;;;0.00;0.00;;;;;21.66;37.26;102036.47;4973908;28;45599;-64
2021/11/22 05:38:36;;;;;;;;;1.00;0.00;;;;;21.64;37.57;102033.13;4972690;28;45493;-64
2021/11/22 05:41:02;;;;;;;;;0.00;0.00;;;;;21.67;37.51;102045.25;4972770;28;45465;-64
2021/11/22 05:43:27;;;;;;;;;0.00;0.00;;;;;21.66;37.31;102047.06;4972473;28;45371;-64
2021/11/22 05:45:52;;;;;;;;;0.00;0.00;;;;;21.67;37.46;102042.59;4971390;28;45648;-65
2021/11/22 05:48:19;;;;;;;;;0.50;0.50;;;;;21.61;37.69;102050.16;4971027;28;45390;-65
2021/11/22 05:50:50;;;;;;;;;0.00;0.00;;;;;21.63;37.27;102050.00;4968968;28;45347;-65
2021/11/22 05:53:17;;;;;;;;;0.00;0.00;;;;;21.65;37.80;102050.69;4970624;28;45404;-65
2021/11/22 05:55:44;;;;;;;;;0.00;0.00;;;;;21.65;37.43;102058.63;4969267;28;46342;-65
2021/11/22 05:58:12;;;;;;;;;0.00;0.00;;;;;21.64;37.25;102056.97;4970291;28;45493;-65
2021/11/22 06:00:38;;;;;;;;;1.25;0.00;;;;;21.64;37.52;102062.28;4970099;28;45355;-65
2021/11/22 06:03:05;;;;;;;;;0.00;0.00;;;;;21.64;37.92;102072.88;4968433;28;45340;-65
2021/11/22 06:05:30;;;;;;;;;0.00;0.00;;;;;21.62;37.12;102067.69;4969174;28;46167;-65
2021/11/22 06:07:55;;;;;;;;;0.00;0.00;;;;;21.58;37.69;102063.69;4967711;28;45438;-65
2021/11/22 06:10:21;;;;;;;;;0.00;0.00;;;;;21.63;37.73;102069.38;4975282;28;45705;-65
2021/11/22 06:12:46;;;;;;;;;0.00;0.00;;;;;21.63;37.60;102073.84;4973291;28;45347;-65
2021/11/22 06:15:11;;;;;;;;;0.00;0.00;;;;;21.63;37.57;102069.38;4972749;28;46291;-65
2021/11/22 06:17:37;;;;;;;;;1.00;0.00;;;;;21.62;37.28;102075.63;4968430;28;45359;-65
2021/11/22 06:20:05;;;;;;;;;0.50;0.25;;;;;21.61;37.34;102073.16;4970898;28;45493;-65
2021/11/22 06:22:30;;;;;;;;;0.25;0.25;;;;;21.62;37.58;102090.72;4975618;28;45373;-66
2021/11/22 06:24:55;;;;;;;;;0.00;0.00;;;;;21.60;37.65;102087.38;4972821;28;46028;-66
2021/11/22 06:27:21;;;;;;;;;0.00;0.00;;;;;21.54;37.34;102074.72;4970983;28;45541;-66
2021/11/22 06:29:47;;;;;;;;;0.00;0.00;;;;;21.62;37.55;102090.72;4969001;28;45509;-66
2021/11/22 06:32:12;;;;;;;;;0.00;0.00;;;;;21.61;37.42;102097.00;4971666;28;45304;-66
2021/11/22 06:34:40;;;;;;;;;0.00;0.00;;;;;21.62;37.32;102101.31;4968310;28;45789;-65
2021/11/22 06:37:06;;;;;;;;;0.00;0.00;;;;;21.62;37.02;102096.03;4970363;28;45447;-66
2021/11/22 06:39:31;;;;;;;;;0.00;0.00;;;;;21.54;37.36;102091.47;4972103;28;45516;-66
2021/11/22 06:41:57;;;;;;;;;0.75;0.75;;;;;21.60;37.18;102100.59;4971804;28;45454;-66
2021/11/22 06:44:22;;;;;;;;;0.00;0.00;;;;;21.60;37.13;102098.78;4971683;28;46687;-66
2021/11/22 06:46:49;;;;;;;;;0.00;0.00;;;;;21.59;37.43;102105.09;4970363;28;45543;-66
2021/11/22 06:49:15;;;;;;;;;2.00;0.00;;;;;21.62;37.33;102103.97;4972846;28;45469;-67
2021/11/22 06:51:41;;;;;;;;;1.00;0.00;;;;;21.53;37.51;102097.72;4969782;28;45389;-66
2021/11/22 06:54:06;;;;;;;;;0.00;0.00;;;;;21.60;37.70;102121.78;4969111;28;46569;-65
2021/11/22 06:56:31;;;;;;;;;1.00;0.00;;;;;21.62;38.18;102122.50;4964763;28;45394;-65
2021/11/22 06:58:57;;;;;;;;;0.00;0.00;;;;;21.63;38.16;102117.06;4965341;28;45494;-65
2021/11/22 07:01:23;;;;;;;;;2.00;0.00;;;;;21.62;38.34;102120.66;4964211;28;45465;-65
2021/11/22 07:03:48;;;;;;;;;1.00;0.00;;;;;21.66;38.22;102134.47;4968673;28;46255;-65
2021/11/22 07:06:13;;;;;;;;;0.00;0.00;;;;;21.67;38.56;102136.16;4970223;28;45390;-65
2021/11/22 07:08:39;;;;;;;;;0.00;0.00;;;;;21.66;38.25;102139.75;4964061;28;45452;-65
2021/11/22 07:11:04;;;;;;;;;0.67;0.00;;;;;21.66;38.87;102147.72;4965721;28;45262;-65
2021/11/22 07:13:32;;;;;;;;;0.00;0.00;;;;;21.70;38.56;102153.56;4969981;28;47132;-65
2021/11/22 07:15:58;;;;;;;;;0.50;0.00;;;;;21.67;38.85;102159.13;4965176;28;45372;-65
2021/11/22 07:18:23;;;;;;;;;0.00;0.00;;;;;21.69;38.88;102162.47;4968267;28;45412;-66
2021/11/22 07:20:49;;;;;;;;;0.00;0.00;;;;;21.62;38.61;102170.19;4969098;28;46374;-65
2021/11/22 07:23:15;;;;;;;;;0.00;0.00;;;;;21.68;38.72;102177.53;4968569;28;45997;-65
2021/11/22 07:25:41;;;;;;;;;0.25;0.00;;;;;21.69;38.48;102181.84;4970762;28;45446;-65
2021/11/22 07:28:07;;;;;;;;;0.00;0.00;;;;;21.67;38.58;102185.63;4971471;28;45375;-66
2021/11/22 07:30:32;;;;;;;;;0.00;0.00;;;;;21.55;38.87;102167.25;4967858;28;45614;-66
2021/11/22 07:32:57;;;;;;;;;1.50;0.00;;;;;21.67;38.91;102197.06;4969727;28;45862;-66
2021/11/22 07:35:23;;;;;;;;;1.50;0.00;;;;;21.68;39.06;102201.38;4967707;28;45532;-66
2021/11/22 07:37:50;;;;;;;;;0.00;0.00;;;;;21.69;39.03;102205.69;4968873;28;45615;-66
2021/11/22 07:40:22;;;;;;;;;1.00;1.00;;;;;21.69;38.90;102202.19;4972647;28;45485;-66
2021/11/22 07:42:52;;;;;;;;;1.25;0.00;;;;;21.68;38.58;102206.66;4969977;28;46085;-66
2021/11/22 07:45:19;;;;;;;;;0.00;0.00;;;;;21.67;38.79;102209.47;4970794;28;45491;-66
2021/11/22 07:47:45;;;;;;;;;1.00;0.00;;;;;21.63;38.77;102216.84;4971789;28;45444;-65
2021/11/22 07:50:11;;;;;;;;;0.00;0.00;;;;;21.68;38.64;102240.25;4968517;28;45396;-65
2021/11/22 07:52:36;;;;;;;;;0.00;0.00;;;;;21.67;38.84;102236.78;4967916;28;46139;-66
2021/11/22 07:55:02;;;;;;;;;0.00;0.00;;;;;21.66;38.53;102232.47;4971130;28;45369;-66
2021/11/22 07:57:28;;;;;;;;;3.00;0.00;;;;;21.66;38.73;102243.06;4969839;28;45609;-66
2021/11/22 07:59:54;;;;;;;;;0.00;0.00;;;;;21.66;38.68;102240.41;4966287;28;45430;-66
2021/11/22 08:02:19;;;;;;;;;0.00;0.00;;;;;21.65;38.28;102245.88;4970093;28;46352;-65
2021/11/22 08:04:44;;;;;;;;;0.00;0.00;;;;;21.64;38.51;102247.66;4970115;28;45489;-66
2021/11/22 08:07:16;;;;;;;;;1.00;0.00;;;;;21.64;38.52;102245.03;4969650;28;45505;-65
2021/11/22 08:09:57;;;;;;;;;0.00;0.00;;;;;21.66;38.29;102244.88;4973956;28;45418;-66
2021/11/22 08:12:27;;;;;;;;;1.00;1.00;;;;;21.68;38.49;102253.50;4973226;28;46123;-66
2021/11/22 08:14:54;;;;;;;;;0.00;0.00;;;;;21.69;38.32;102249.88;4971904;28;45490;-66
2021/11/22 08:17:19;;;;;;;;;1.00;0.00;;;;;21.67;38.71;102258.00;4968610;28;45352;-65
2021/11/22 08:19:45;;;;;;;;;0.50;0.00;;;;;21.67;38.65;102260.63;4975604;28;45602;-66
2021/11/22 08:22:10;;;;;;;;;1.00;0.00;;;;;21.69;38.26;102265.78;4975409;28;47178;-66
2021/11/22 08:24:37;;;;;;;;;1.50;0.50;;;;;21.68;38.86;102270.22;4974193;28;45457;-66
2021/11/22 08:27:02;;;;;;;;;1.00;0.00;;;;;21.69;38.39;102271.06;4973445;28;45303;-66
2021/11/22 08:29:27;;;;;;;;;1.00;0.00;;;;;21.70;38.32;102270.91;4976560;28;45541;-66
2021/11/22 08:31:53;;;;;;;;;0.00;0.00;;;;;21.72;38.26;102284.03;4971027;28;45428;-66
2021/11/22 08:34:18;;;;;;;;;0.75;0.75;;;;;21.72;38.32;102290.19;4987735;28;45521;-66
2021/11/22 08:36:44;;;;;;;;;2.75;0.00;;;;;21.73;38.54;102288.34;4972256;28;45422;-66
2021/11/22 08:39:09;;;;;;;;;0.00;0.00;;;;;21.71;38.23;102282.34;4971931;28;45497;-66
2021/11/22 08:41:35;;;;;;;;;0.50;0.00;;;;;21.76;38.22;102296.00;4970795;28;46086;-66
2021/11/22 08:44:01;;;;;;;;;0.00;0.00;;;;;21.76;38.44;102296.00;4970522;28;45509;-66
2021/11/22 08:46:26;;;;;;;;;0.00;0.00;;;;;21.77;38.19;102310.09;4973545;28;45446;-66
2021/11/22 08:48:51;;;;;;;;;0.00;0.00;;;;;21.69;38.11;102297.56;4975680;28;45317;-65
2021/11/22 08:51:17;;;;;;;;;0.00;0.00;;;;;21.78;38.58;102304.66;4970980;28;46520;-66
2021/11/22 08:53:43;;;;;;;;;1.00;0.00;;;;;21.78;38.22;102312.59;4972707;28;45340;-65
2021/11/22 08:56:09;;;;;;;;;0.00;0.00;;;;;21.75;38.26;102310.25;4971325;28;45427;-65
2021/11/22 08:58:35;;;;;;;;;0.33;0.00;;;;;21.78;38.13;102311.78;4971263;28;45549;-65
2021/11/22 09:01:00;;;;;;;;;0.00;0.00;;;;;21.74;38.27;102317.34;4971051;28;46246;-66
2021/11/22 09:03:26;;;;;;;;;0.00;0.00;;;;;21.77;38.19;102323.34;4973874;28;45477;-65
2021/11/22 09:05:51;;;;;;;;;0.00;0.00;;;;;21.78;38.06;102327.69;4970738;28;45575;-66
2021/11/22 09:08:16;;;;;;;;;0.00;0.00;;;;;21.76;38.20;102333.09;4970563;28;45555;-65
2021/11/22 09:10:42;;;;;;;;;0.00;0.00;;;;;21.73;37.92;102318.31;4971715;28;45776;-66
2021/11/22 09:13:08;;;;;;;;;1.00;0.00;;;;;21.81;37.83;102333.50;4973068;28;45409;-66
2021/11/22 09:15:33;;;;;;;;;0.67;0.00;;;;;21.79;38.33;102335.47;4972465;28;45408;-66
2021/11/22 09:17:59;;;;;;;;;0.00;0.00;;;;;21.82;37.95;102335.19;4969413;28;45622;-66
2021/11/22 09:20:26;;;;;;;;;0.00;0.00;;;;;21.80;38.02;102342.44;4972260;28;45514;-66
2021/11/22 09:22:56;;;;;;;;;2.00;0.00;;;;;21.82;38.39;102361.69;4970884;28;45549;-66
2021/11/22 09:25:22;;;;;;;;;0.00;0.00;;;;;21.83;38.13;102359.88;4970109;28;45346;-66
2021/11/22 09:27:50;;;;;;;;;1.00;0.50;;;;;21.81;38.13;102352.06;4975464;28;45383;-66
2021/11/22 09:30:16;;;;;;;;;1.00;0.00;;;;;21.81;38.00;102369.75;4970620;28;47244;-66
2021/11/22 09:32:42;;;;;;;;;1.50;0.00;;;;;21.79;38.27;102354.00;4974655;28;45495;-65
2021/11/22 09:35:08;;;;;;;;;1.00;0.00;;;;;21.81;37.84;102356.50;4969536;28;45801;-66
2021/11/22 09:37:34;;;;;;;;;0.00;0.00;;;;;21.83;37.56;102370.47;4972912;28;45520;-66
2021/11/22 09:39:59;;;;;;;;;0.33;0.00;;;;;21.82;38.26;102363.50;4971991;28;46195;-66
2021/11/22 09:42:25;;;;;;;;;2.33;0.00;;;;;21.79;37.69;102380.50;4972555;28;45626;-65
2021/11/22 09:44:50;;;;;;;;;0.00;0.00;;;;;21.82;37.93;102384.69;4971042;28;45671;-65
2021/11/22 09:47:16;;;;;;;;;1.67;0.00;;;;;21.82;37.59;102390.00;4969483;28;45344;-65
2021/11/22 09:49:41;;;;;;;;;0.00;0.00;;;;;21.82;37.66;102387.34;4968917;28;46196;-66
2021/11/22 09:52:07;;;;;;;;;0.00;0.00;;;;;21.67;38.12;102371.88;4972227;28;45527;-66
2021/11/22 09:54:32;;;;;;;;;1.33;0.33;;;;;21.69;37.70;102369.94;4973656;28;45580;-66
2021/11/22 09:56:57;;;;;;;;;1.00;0.00;;;;;21.83;37.97;102391.69;4972278;27;45726;-66
2021/11/22 09:59:23;;;;;;;;;0.00;0.00;;;;;21.85;37.40;102416.22;4971659;28;45844;-65
2021/11/22 10:01:56;;;;;;;;;0.00;0.00;;;;;21.85;37.89;102410.91;4972688;28;45406;-65
2021/11/22 10:04:27;;;;;;;;;0.00;0.00;;;;;21.85;37.67;102416.22;4973613;28;45434;-66
2021/11/22 10:06:58;;;;;;;;;0.00;0.00;;;;;21.83;37.31;102405.72;4972030;28;45478;-66
2021/11/22 10:09:30;;;;;;;;;0.00;0.00;;;;;21.85;37.65;102416.22;4972398;28;45472;-66
2021/11/22 10:11:57;;;;;;;;;0.00;0.00;;;;;21.83;37.90;102418.16;4967250;28;45542;-65
2021/11/22 10:14:35;;;;;;;;;0.00;0.00;;;;;21.85;37.71;102417.06;4969767;28;45492;-66
2021/11/22 10:17:00;;;;;;;;;0.00;0.00;;;;;21.69;37.42;102396.41;4973522;28;45457;-66
2021/11/22 10:19:26;;;;;;;;;0.33;0.33;;;;;21.84;37.59;102417.19;4973163;28;47395;-66
2021/11/22 10:21:51;;;;;;;;;1.00;0.00;;;;;21.86;37.39;102433.75;4970136;28;45548;-66
2021/11/22 10:24:17;;;;;;;;;0.00;0.00;;;;;21.84;37.21;102446.31;4971311;28;45521;-65
2021/11/22 10:26:44;;;;;;;;;1.33;0.00;;;;;21.84;37.26;102425.97;4968768;28;45310;-66
2021/11/22 10:29:21;;;;;;;;;0.00;0.00;;;;;21.84;37.77;102431.25;4970888;28;45609;-66
2021/11/22 10:31:49;;;;;;;;;2.00;0.00;;;;;21.80;37.49;102435.19;4966029;28;45888;-66
2021/11/22 10:34:15;;;;;;;;;1.00;1.00;;;;;21.83;37.66;102436.72;4975690;28;45586;-66
2021/11/22 10:36:40;;;;;;;;;0.75;0.00;;;;;21.85;37.81;102435.59;4971793;28;45359;-66
2021/11/22 10:39:07;;;;;;;;;0.00;0.00;;;;;21.83;37.60;102449.97;4971096;28;46281;-65
2021/11/22 10:41:39;;;;;;;;;0.50;0.50;;;;;21.85;37.34;102455.94;4969588;28;45532;-65
2021/11/22 10:44:12;;;;;;;;;0.00;0.00;;;;;21.84;37.19;102441.03;4966471;28;45481;-66
2021/11/22 10:46:48;;;;;;;;;0.00;0.00;;;;;21.82;37.52;102443.81;4970192;28;45550;-66
2021/11/22 10:49:16;;;;;;;;;1.00;1.00;;;;;21.83;37.44;102481.75;4970090;28;47482;-66
2021/11/22 10:51:45;;;;;;;;;1.00;0.00;;;;;21.83;37.14;102465.88;4969430;28;45346;-66
2021/11/22 10:54:12;;;;;;;;;1.00;0.00;;;;;21.79;37.01;102469.75;4972182;28;45509;-66
2021/11/22 10:56:44;;;;;;;;;0.00;0.00;;;;;21.82;37.32;102464.19;4972782;28;45538;-66
2021/11/22 10:59:12;;;;;;;;;2.00;0.00;;;;;21.83;37.42;102463.22;4965380;28;47499;-66
2021/11/22 11:01:55;;;;;;;;;1.00;1.00;;;;;21.82;37.05;102466.81;4967474;28;45409;-66
2021/11/22 11:04:31;;;;;;;;;0.00;0.00;;;;;21.80;37.60;102456.38;4971951;28;45631;-65
2021/11/22 11:07:07;;;;;;;;;1.00;1.00;;;;;21.81;36.94;102454.53;4972518;28;46053;-65
2021/11/22 11:09:36;;;;;;;;;0.33;0.33;;;;;21.81;36.98;102458.03;4969763;28;45646;-66
2021/11/22 11:12:07;;;;;;;;;0.00;0.00;;;;;21.80;37.23;102459.03;4969723;28;45394;-66
2021/11/22 11:14:34;;;;;;;;;0.00;0.00;;;;;21.80;37.03;102447.59;4970571;28;45383;-66
2021/11/22 11:17:21;;;;;;;;;1.00;0.00;;;;;21.81;37.42;102446.59;4972268;28;45500;-66
2021/11/22 11:19:51;;;;;;;;;0.25;0.25;;;;;21.81;37.48;102449.25;4958082;28;45503;-66
2021/11/22 11:22:17;;;;;;;;;0.33;0.33;;;;;21.76;36.73;102441.72;4956064;28;45358;-66